Time;durP1;ratioP1;P1;durP2;ratioP2;P2;SDS_P1;SDS_P2;PMS_P1;PMS_P2;Temp;Humidity;BMP_temperature;BMP_pressure;BME280_temperature;BME280_humidity;BME280_pressure;Samples;Min_cycle;Max_cycle;Signal;HPM_P1;HPM_P2
2021/08/15 00:00:10;;;;;;;3.33;3.02;;;;;;;28.08;39.09;99775.68;1692997;83;21094;-45
2021/08/15 00:02:39;;;;;;;3.33;2.65;;;;;;;28.08;39.12;99777.03;1668419;85;21055;-45
2021/08/15 00:05:07;;;;;;;3.22;2.92;;;;;;;28.07;39.15;99774.48;1695647;83;21055;-45
2021/08/15 00:07:37;;;;;;;3.20;2.90;;;;;;;28.05;39.13;99774.64;1686067;85;21145;-45
2021/08/15 00:10:06;;;;;;;3.50;3.20;;;;;;;28.04;39.14;99782.43;1716925;82;21046;-44
2021/08/15 00:12:34;;;;;;;3.83;3.25;;;;;;;28.03;39.17;99771.25;1660040;85;21041;-45
2021/08/15 00:15:00;;;;;;;3.00;2.80;;;;;;;28.03;39.17;99776.66;1645192;86;21578;-44
2021/08/15 00:17:29;;;;;;;3.27;2.90;;;;;;;28.03;39.16;99780.72;1676463;84;21037;-46
2021/08/15 00:19:57;;;;;;;3.27;2.72;;;;;;;28.01;39.21;99777.81;1674621;85;21087;-44
2021/08/15 00:22:23;;;;;;;4.40;3.50;;;;;;;28.00;39.21;99775.62;1652643;85;21071;-44
2021/08/15 00:24:51;;;;;;;2.83;2.62;;;;;;;28.00;39.20;99781.03;1656162;85;21081;-44
2021/08/15 00:27:17;;;;;;;2.87;2.60;;;;;;;27.99;39.20;99780.68;1684122;85;22169;-47
2021/08/15 00:29:44;;;;;;;3.85;2.67;;;;;;;27.97;39.21;99783.57;1695730;84;21538;-44
2021/08/15 00:32:11;;;;;;;3.10;2.80;;;;;;;27.97;39.23;99776.81;1695504;84;21752;-45
2021/08/15 00:34:37;;;;;;;4.03;3.60;;;;;;;27.97;39.23;99774.59;1695551;84;21411;-44
2021/08/15 00:37:05;;;;;;;3.08;2.65;;;;;;;27.95;39.23;99770.69;1695150;83;21045;-44
2021/08/15 00:39:33;;;;;;;3.02;2.72;;;;;;;27.95;39.29;99769.33;1695457;84;21058;-45
2021/08/15 00:41:59;;;;;;;3.05;2.85;;;;;;;27.94;39.27;99769.49;1672454;84;21146;-47
2021/08/15 00:44:26;;;;;;;2.95;2.58;;;;;;;27.93;39.28;99770.00;1677303;84;21226;-44
2021/08/15 00:46:53;;;;;;;3.80;3.10;;;;;;;27.94;39.28;99777.60;1667419;86;21496;-44
2021/08/15 00:49:20;;;;;;;3.20;2.90;;;;;;;27.91;39.30;99772.00;1667159;85;21068;-45
2021/08/15 00:51:46;;;;;;;5.67;3.55;;;;;;;27.92;39.32;99770.13;1667598;84;20970;-44
2021/08/15 00:54:13;;;;;;;3.47;2.60;;;;;;;27.91;39.33;99768.45;1668094;85;21057;-45
2021/08/15 00:56:40;;;;;;;4.03;2.90;;;;;;;27.90;39.33;99769.45;1667998;86;21125;-45
2021/08/15 00:59:08;;;;;;;2.95;2.52;;;;;;;27.89;39.34;99769.95;1667661;85;22211;-45
2021/08/15 01:01:35;;;;;;;3.30;3.00;;;;;;;27.89;39.34;99767.73;1638858;86;21041;-44
2021/08/15 01:04:04;;;;;;;3.25;2.33;;;;;;;27.88;39.36;99767.41;1668038;86;20946;-47
2021/08/15 01:06:33;;;;;;;2.85;2.52;;;;;;;27.88;39.36;99760.66;1667781;85;21104;-44
2021/08/15 01:09:02;;;;;;;3.02;2.50;;;;;;;27.87;39.35;99763.00;1653275;84;21574;-45
2021/08/15 01:11:30;;;;;;;3.62;3.02;;;;;;;27.86;39.37;99763.52;1639857;86;21110;-44
2021/08/15 01:14:04;;;;;;;3.42;2.75;;;;;;;27.86;39.38;99761.33;1618745;86;21039;-44
2021/08/15 01:16:33;;;;;;;6.08;3.10;;;;;;;27.84;39.38;99756.55;1631743;87;21121;-44
2021/08/15 01:19:00;;;;;;;3.70;2.90;;;;;;;27.84;39.39;99763.31;1694194;84;21167;-44
2021/08/15 01:21:27;;;;;;;2.87;2.58;;;;;;;27.83;39.40;99759.77;1702565;84;21583;-44
2021/08/15 01:23:53;;;;;;;4.40;2.58;;;;;;;27.82;39.41;99758.06;1702435;84;20930;-45
2021/08/15 01:26:21;;;;;;;3.15;2.85;;;;;;;27.82;39.41;99761.27;1683804;84;21112;-45
2021/08/15 01:28:48;;;;;;;2.65;2.40;;;;;;;27.80;39.42;99758.22;1702321;84;21060;-44
2021/08/15 01:31:15;;;;;;;3.30;3.00;;;;;;;27.79;39.46;99759.24;1702340;84;21013;-48
2021/08/15 01:33:41;;;;;;;2.92;2.70;;;;;;;27.80;39.46;99768.19;1684243;84;21685;-45
2021/08/15 01:36:15;;;;;;;3.67;2.75;;;;;;;27.78;39.44;99758.88;1684008;84;21561;-45
2021/08/15 01:38:42;;;;;;;4.58;2.70;;;;;;;27.77;39.43;99754.50;1668424;84;21019;-45
2021/08/15 01:41:08;;;;;;;3.08;2.80;;;;;;;27.78;39.47;99756.18;1672285;84;21660;-44
2021/08/15 01:43:51;;;;;;;2.72;2.50;;;;;;;27.77;39.48;99753.16;1653809;84;21112;-44
2021/08/15 01:46:18;;;;;;;2.90;2.67;;;;;;;27.77;39.46;99753.63;1666539;84;21221;-46
2021/08/15 01:48:45;;;;;;;3.15;2.87;;;;;;;27.76;39.50;99753.31;1725846;82;21088;-44
2021/08/15 01:51:11;;;;;;;2.92;2.60;;;;;;;27.74;39.47;99749.41;1740413;80;21081;-45
2021/08/15 01:53:38;;;;;;;3.37;2.55;;;;;;;27.74;39.51;99752.11;1783254;80;21088;-45
2021/08/15 01:56:05;;;;;;;4.10;2.75;;;;;;;27.73;39.48;99747.70;1732695;80;21607;-44
2021/08/15 01:58:33;;;;;;;3.60;2.70;;;;;;;27.72;39.50;99743.31;1783169;80;21936;-45
2021/08/15 02:00:59;;;;;;;3.22;2.95;;;;;;;27.73;39.52;99746.34;1783312;80;21516;-45
2021/08/15 02:03:25;;;;;;;2.90;2.70;;;;;;;27.71;39.52;99747.02;1783489;80;20954;-44
2021/08/15 02:05:52;;;;;;;3.25;2.60;;;;;;;27.71;39.52;99749.72;1757416;80;21080;-44
2021/08/15 02:08:19;;;;;;;3.20;2.77;;;;;;;27.70;39.54;99745.30;1780061;80;21029;-44
2021/08/15 02:10:46;;;;;;;3.22;2.67;;;;;;;27.70;39.55;99745.30;1715803;82;22310;-44
2021/08/15 02:13:12;;;;;;;3.02;2.40;;;;;;;27.69;39.55;99742.28;1715425;82;21559;-46
2021/08/15 02:15:40;;;;;;;2.50;2.30;;;;;;;27.68;39.56;99741.92;1745461;81;21489;-45
2021/08/15 02:18:09;;;;;;;3.02;2.75;;;;;;;27.66;39.56;99742.59;1751137;81;21038;-44
2021/08/15 02:20:38;;;;;;;2.52;2.33;;;;;;;27.66;39.57;99735.83;1750656;81;21035;-44
2021/08/15 02:23:04;;;;;;;3.30;2.60;;;;;;;27.66;39.57;99740.40;1723012;81;21641;-44
2021/08/15 02:25:31;;;;;;;3.33;3.02;;;;;;;27.65;39.57;99739.53;1750449;81;21055;-44
2021/08/15 02:27:58;;;;;;;3.12;2.80;;;;;;;27.65;39.58;99739.53;1750253;81;21549;-47
2021/08/15 02:30:25;;;;;;;3.17;2.40;;;;;;;27.64;39.60;99740.55;1750452;81;21530;-45
2021/08/15 02:32:52;;;;;;;2.83;2.47;;;;;;;27.65;39.60;99746.28;1750894;81;21090;-44
2021/08/15 02:35:19;;;;;;;3.33;2.67;;;;;;;27.63;39.59;99740.71;1750404;81;21061;-45
2021/08/15 02:37:49;;;;;;;2.92;2.62;;;;;;;27.62;39.63;99743.89;1751360;81;21052;-44
2021/08/15 02:40:18;;;;;;;2.70;2.50;;;;;;;27.61;39.62;99741.70;1751926;81;21053;-48
2021/08/15 02:42:45;;;;;;;3.37;2.67;;;;;;;27.61;39.63;99736.81;1755697;80;21005;-44
2021/08/15 02:45:14;;;;;;;3.65;2.58;;;;;;;27.61;39.62;99738.16;1757028;80;21041;-44
2021/08/15 02:47:40;;;;;;;3.25;2.67;;;;;;;27.61;39.63;99740.35;1783579;80;21081;-45
2021/08/15 02:50:09;;;;;;;2.67;2.47;;;;;;;27.61;39.62;99738.16;1783209;80;21069;-45
2021/08/15 02:52:36;;;;;;;3.95;2.87;;;;;;;27.60;39.62;99736.45;1756954;80;20998;-45
2021/08/15 02:55:04;;;;;;;2.75;2.55;;;;;;;27.60;39.63;99735.10;1783319;80;21018;-49
2021/08/15 02:57:30;;;;;;;2.83;2.62;;;;;;;27.60;39.63;99737.80;1756651;80;21525;-44
2021/08/15 02:59:58;;;;;;;2.90;2.70;;;;;;;27.60;39.59;99742.73;1756827;80;21193;-44
2021/08/15 03:02:25;;;;;;;2.35;2.15;;;;;;;27.61;39.62;99738.16;1783213;80;21131;-45
2021/08/15 03:04:51;;;;;;;2.47;2.27;;;;;;;27.61;39.62;99739.52;1734176;81;21086;-44
2021/08/15 03:07:18;;;;;;;2.72;2.52;;;;;;;27.61;39.58;99738.16;1750485;81;21016;-45
2021/08/15 03:09:45;;;;;;;2.50;2.30;;;;;;;27.63;39.59;99738.00;1751290;81;20985;-45
2021/08/15 03:12:13;;;;;;;3.75;2.67;;;;;;;27.63;39.55;99744.77;1717553;81;21039;-45
2021/08/15 03:14:41;;;;;;;2.58;2.37;;;;;;;27.63;39.54;99738.84;1752025;81;21314;-45
2021/08/15 03:17:08;;;;;;;3.45;2.60;;;;;;;27.64;39.51;99741.91;1751689;81;21571;-45
2021/08/15 03:19:37;;;;;;;2.75;2.55;;;;;;;27.65;39.51;99740.88;1743136;82;21098;-45
2021/08/15 03:22:05;;;;;;;2.65;2.47;;;;;;;27.68;39.47;99743.27;1743152;82;21015;-46
2021/08/15 03:24:33;;;;;;;2.60;2.40;;;;;;;27.71;39.41;99742.96;1743079;82;21111;-44
2021/08/15 03:27:02;;;;;;;2.85;2.52;;;;;;;27.80;39.29;99741.99;1742938;82;21034;-45
2021/08/15 03:29:28;;;;;;;3.30;2.37;;;;;;;27.95;39.03;99740.10;1715724;82;21627;-47
2021/08/15 03:31:54;;;;;;;2.15;2.05;;;;;;;28.14;38.73;99740.36;1716001;82;21050;-45
2021/08/15 03:34:21;;;;;;;3.25;2.67;;;;;;;28.36;38.35;99741.64;1715644;82;21050;-46
2021/08/15 03:36:49;;;;;;;2.75;2.12;;;;;;;28.59;38.00;99746.52;1745172;81;21959;-44
2021/08/15 03:39:16;;;;;;;2.20;2.00;;;;;;;28.84;37.55;99745.56;1724408;81;20977;-48
2021/08/15 03:41:44;;;;;;;2.30;2.10;;;;;;;29.10;37.11;99744.58;1752121;81;21234;-44
2021/08/15 03:44:10;;;;;;;2.25;2.05;;;;;;;29.36;36.65;99747.70;1773903;80;21108;-44
2021/08/15 03:46:36;;;;;;;2.85;2.52;;;;;;;29.59;36.20;99739.22;1757150;80;21057;-43
2021/08/15 03:49:04;;;;;;;4.25;2.30;;;;;;;29.83;35.77;99741.59;1756646;80;21092;-45
2021/08/15 03:51:31;;;;;;;2.35;2.10;;;;;;;30.08;35.36;99745.61;1782975;80;21049;-45
2021/08/15 03:53:57;;;;;;;3.20;2.08;;;;;;;30.31;34.90;99742.48;1756757;80;21037;-44
2021/08/15 03:56:25;;;;;;;2.65;2.15;;;;;;;30.56;34.48;99743.73;1783229;80;21073;-45
2021/08/15 03:58:54;;;;;;;2.15;2.00;;;;;;;30.81;34.06;99735.47;1756776;80;21029;-43
2021/08/15 04:01:22;;;;;;;2.55;2.27;;;;;;;31.06;33.61;99733.47;1756807;80;21066;-44
2021/08/15 04:03:49;;;;;;;2.40;2.20;;;;;;;31.29;33.20;99729.39;1783349;80;21037;-44
2021/08/15 04:06:21;;;;;;;2.10;2.00;;;;;;;31.52;32.80;99729.89;1756965;80;21107;-45
2021/08/15 04:08:45;;;;;;;1.90;1.80;;;;;;;31.72;32.46;99729.69;1775197;80;21032;-44
2021/08/15 04:11:13;;;;;;;2.02;1.90;;;;;;;31.93;32.11;99729.50;1752166;80;21060;-44
2021/08/15 04:13:42;;;;;;;3.55;2.22;;;;;;;32.11;31.77;99731.86;1752275;81;21282;-44
2021/08/15 04:16:08;;;;;;;2.05;1.92;;;;;;;32.29;31.45;99730.12;1717303;81;21006;-44
2021/08/15 04:18:35;;;;;;;3.25;1.67;;;;;;;32.46;31.15;99730.22;1723266;81;21107;-43
2021/08/15 04:21:03;;;;;;;2.22;1.82;;;;;;;32.62;30.91;99733.83;1750455;81;20999;-42
2021/08/15 04:23:32;;;;;;;2.47;2.27;;;;;;;32.74;30.66;99729.55;1750758;81;21110;-43
2021/08/15 04:25:58;;;;;;;2.08;1.87;;;;;;;32.89;30.40;99732.23;1723326;81;21059;-45
2021/08/15 04:28:25;;;;;;;2.10;2.00;;;;;;;33.02;30.19;99731.51;1750125;81;21082;-46
2021/08/15 04:30:54;;;;;;;2.77;2.22;;;;;;;33.13;30.00;99729.64;1750846;81;21042;-43
2021/08/15 04:33:23;;;;;;;2.33;1.92;;;;;;;33.23;29.83;99730.19;1747069;80;21077;-43
2021/08/15 04:35:49;;;;;;;2.10;2.00;;;;;;;33.33;29.66;99732.05;1756932;80;21591;-44
2021/08/15 04:38:16;;;;;;;3.02;2.40;;;;;;;33.42;29.51;99724.60;1756517;80;21059;-45
2021/08/15 04:40:42;;;;;;;2.02;1.92;;;;;;;33.50;29.34;99723.59;1752295;81;21435;-45
2021/08/15 04:43:08;;;;;;;2.95;2.08;;;;;;;33.55;29.24;99726.58;1724101;81;21015;-47
2021/08/15 04:45:35;;;;;;;2.50;2.08;;;;;;;33.57;29.17;99727.21;1723049;81;21054;-44
2021/08/15 04:48:03;;;;;;;2.65;2.05;;;;;;;33.53;29.21;99727.83;1750338;81;20995;-43
2021/08/15 04:50:31;;;;;;;2.30;2.10;;;;;;;33.43;29.28;99730.89;1750413;81;21119;-44
2021/08/15 04:52:57;;;;;;;2.35;1.82;;;;;;;33.28;29.44;99729.08;1747511;81;21498;-44
2021/08/15 04:55:24;;;;;;;2.52;1.92;;;;;;;33.09;29.65;99730.55;1710193;83;21489;-45
2021/08/15 04:57:51;;;;;;;2.70;2.30;;;;;;;32.90;29.91;99728.45;1710640;83;21012;-44
2021/08/15 05:00:18;;;;;;;2.40;2.20;;;;;;;32.72;30.12;99726.19;1710957;83;21073;-44
2021/08/15 05:02:46;;;;;;;2.62;2.20;;;;;;;32.52;30.41;99726.75;1730302;82;21118;-44
2021/08/15 05:05:12;;;;;;;2.08;1.92;;;;;;;32.37;30.66;99731.38;1732634;82;21049;-45
2021/08/15 05:07:40;;;;;;;2.42;2.22;;;;;;;32.19;30.90;99728.52;1780453;80;21069;-45
2021/08/15 05:10:08;;;;;;;2.45;2.22;;;;;;;32.06;31.11;99727.00;1739828;82;21045;-45
2021/08/15 05:12:35;;;;;;;2.30;2.10;;;;;;;31.92;31.32;99725.91;1723845;81;21109;-43
2021/08/15 05:15:03;;;;;;;2.40;2.20;;;;;;;31.81;31.51;99725.87;1720978;83;21175;-45
2021/08/15 05:17:30;;;;;;;2.52;2.25;;;;;;;31.72;31.69;99724.77;1685393;84;21443;-45
2021/08/15 05:19:57;;;;;;;2.37;1.85;;;;;;;31.61;31.82;99723.36;1705009;84;21091;-45
2021/08/15 05:22:23;;;;;;;2.70;2.17;;;;;;;31.52;31.99;99722.56;1694434;84;21053;-45
2021/08/15 05:24:50;;;;;;;2.00;1.90;;;;;;;31.43;32.11;99720.41;1694735;84;21471;-47
2021/08/15 05:27:16;;;;;;;1.75;1.65;;;;;;;31.38;32.23;99723.36;1737403;82;21767;-45
2021/08/15 05:29:43;;;;;;;1.98;1.67;;;;;;;31.32;32.32;99724.95;1737704;82;21536;-44
2021/08/15 05:32:09;;;;;;;2.25;2.05;;;;;;;31.26;32.41;99718.35;1718711;82;22219;-46
2021/08/15 05:34:36;;;;;;;3.33;2.20;;;;;;;31.21;32.54;99719.94;1718735;82;21635;-44
2021/08/15 05:37:03;;;;;;;1.90;1.80;;;;;;;31.15;32.62;99722.02;1718629;82;21077;-46
2021/08/15 05:39:29;;;;;;;2.15;1.87;;;;;;;31.11;32.70;99716.94;1688277;85;22440;-45
2021/08/15 05:41:57;;;;;;;2.22;2.00;;;;;;;31.07;32.78;99718.86;1688355;85;20944;-44
2021/08/15 05:44:24;;;;;;;2.40;2.20;;;;;;;31.03;32.84;99709.36;1676387;85;21580;-44
2021/08/15 05:46:52;;;;;;;2.37;2.17;;;;;;;31.00;32.88;99713.30;1693583;84;21578;-45
2021/08/15 05:49:18;;;;;;;1.80;1.70;;;;;;;30.97;32.98;99714.16;1727723;82;21598;-47
2021/08/15 05:51:44;;;;;;;1.90;1.80;;;;;;;30.94;33.01;99714.02;1681662;84;21283;-48
2021/08/15 05:54:11;;;;;;;2.25;2.05;;;;;;;30.91;33.07;99714.34;1713183;82;21058;-45
2021/08/15 05:56:38;;;;;;;3.60;1.90;;;;;;;30.89;33.10;99705.53;1695156;84;21120;-44
2021/08/15 05:59:06;;;;;;;4.12;2.00;;;;;;;30.86;33.14;99709.96;1695934;83;21045;-44
2021/08/15 06:01:33;;;;;;;2.25;1.95;;;;;;;30.83;33.19;99714.39;1695895;83;21099;-46
2021/08/15 06:04:02;;;;;;;1.80;1.70;;;;;;;30.82;33.24;99709.48;1683908;84;21093;-43
2021/08/15 06:06:28;;;;;;;2.30;2.00;;;;;;;30.79;33.29;99709.00;1695772;84;20997;-46
2021/08/15 06:08:57;;;;;;;2.20;2.10;;;;;;;30.77;33.34;99709.70;1694692;84;21023;-42
2021/08/15 06:11:23;;;;;;;2.20;2.00;;;;;;;30.74;33.37;99711.72;1740231;81;21105;-44
2021/08/15 06:13:51;;;;;;;2.08;1.98;;;;;;;30.72;33.40;99710.23;1740430;82;21050;-44
2021/08/15 06:16:19;;;;;;;2.17;1.98;;;;;;;30.69;33.45;99707.34;1745074;81;21529;-43
2021/08/15 06:18:47;;;;;;;2.10;2.00;;;;;;;30.69;33.47;99714.13;1690857;84;20987;-44
2021/08/15 06:21:14;;;;;;;2.22;2.02;;;;;;;30.68;33.49;99709.75;1740301;81;21023;-48
2021/08/15 06:23:42;;;;;;;3.95;2.30;;;;;;;30.67;33.53;99712.12;1740447;82;21045;-47
2021/08/15 06:26:10;;;;;;;2.15;1.95;;;;;;;30.64;33.55;99708.39;1740321;82;22198;-44
2021/08/15 06:28:37;;;;;;;2.83;2.15;;;;;;;30.61;33.60;99706.03;1721141;82;21071;-43
2021/08/15 06:31:03;;;;;;;2.35;2.08;;;;;;;30.61;33.62;99711.46;1740257;82;21058;-43
2021/08/15 06:33:29;;;;;;;2.08;1.90;;;;;;;30.60;33.64;99708.44;1740361;82;21561;-44
2021/08/15 06:35:56;;;;;;;2.02;1.92;;;;;;;30.60;33.65;99711.64;1740267;82;21019;-43
2021/08/15 06:38:23;;;;;;;1.90;1.80;;;;;;;30.59;33.67;99708.61;1740440;82;21517;-43
2021/08/15 06:40:50;;;;;;;2.12;1.90;;;;;;;30.58;33.69;99706.41;1722000;82;21206;-44
2021/08/15 06:43:17;;;;;;;1.98;1.87;;;;;;;30.57;33.71;99704.71;1745190;81;21137;-44
2021/08/15 06:45:44;;;;;;;1.98;1.70;;;;;;;30.56;33.72;99703.01;1747723;82;21027;-43
2021/08/15 06:48:11;;;;;;;2.00;1.90;;;;;;;30.54;33.75;99703.70;1747707;82;21542;-45
2021/08/15 06:50:38;;;;;;;2.47;2.27;;;;;;;30.53;33.78;99700.64;1747478;81;22324;-44
2021/08/15 06:53:06;;;;;;;2.35;2.15;;;;;;;30.52;33.80;99707.95;1733895;81;21659;-43
2021/08/15 06:55:33;;;;;;;1.70;1.60;;;;;;;30.51;33.83;99705.41;1659946;85;21039;-43
2021/08/15 06:58:00;;;;;;;2.17;2.05;;;;;;;30.51;33.84;99705.41;1695341;83;21345;-43
2021/08/15 07:00:27;;;;;;;1.80;1.70;;;;;;;30.50;33.89;99702.38;1648402;86;21027;-44
2021/08/15 07:02:53;;;;;;;1.60;1.50;;;;;;;30.50;33.89;99702.38;1713947;83;21062;-45
2021/08/15 07:05:20;;;;;;;2.08;1.87;;;;;;;30.49;33.90;99700.68;1650332;86;21024;-46
2021/08/15 07:07:46;;;;;;;2.02;1.92;;;;;;;30.48;33.92;99702.56;1714014;83;21515;-43
2021/08/15 07:10:16;;;;;;;1.85;1.75;;;;;;;30.48;33.93;99697.62;1656424;85;21046;-44
2021/08/15 07:12:52;;;;;;;1.75;1.65;;;;;;;30.48;33.96;99704.41;1648231;86;22017;-44
2021/08/15 07:15:14;;;;;;;3.05;2.00;;;;;;;30.47;33.96;99699.50;1688223;83;21039;-44
2021/08/15 07:17:41;;;;;;;2.17;2.08;;;;;;;30.47;33.94;99697.30;1640590;86;21166;-45
2021/08/15 07:20:09;;;;;;;1.75;1.65;;;;;;;30.47;33.97;99701.38;1676289;85;21376;-43
2021/08/15 07:22:36;;;;;;;1.98;1.87;;;;;;;30.48;33.98;99704.41;1676468;84;21102;-45
2021/08/15 07:25:05;;;;;;;1.82;1.72;;;;;;;30.47;33.98;99704.09;1676324;85;21063;-43
2021/08/15 07:27:34;;;;;;;2.02;1.92;;;;;;;30.47;34.00;99700.02;1683862;83;21027;-46
2021/08/15 07:30:02;;;;;;;1.70;1.60;;;;;;;30.46;34.00;99697.80;1715355;83;21084;-44
2021/08/15 07:32:28;;;;;;;2.00;1.90;;;;;;;30.48;34.02;99697.62;1715423;83;21021;-44
2021/08/15 07:34:55;;;;;;;1.60;1.50;;;;;;;30.48;34.02;99697.62;1715390;83;21074;-44
2021/08/15 07:37:22;;;;;;;2.77;1.85;;;;;;;30.47;34.03;99698.66;1693149;84;21148;-49
2021/08/15 07:39:48;;;;;;;1.92;1.72;;;;;;;30.47;34.03;99698.14;1708084;83;21075;-44
2021/08/15 07:42:15;;;;;;;1.80;1.70;;;;;;;30.48;34.04;99704.41;1701959;83;20976;-47
2021/08/15 07:44:42;;;;;;;2.47;1.72;;;;;;;30.48;34.03;99697.62;1713532;83;21498;-44
2021/08/15 07:47:10;;;;;;;2.17;1.95;;;;;;;30.49;34.04;99697.97;1714064;83;21082;-43
2021/08/15 07:49:38;;;;;;;1.90;1.80;;;;;;;30.48;34.04;99694.91;1714029;83;21066;-44
2021/08/15 07:52:07;;;;;;;2.08;1.90;;;;;;;30.49;34.05;99695.25;1714023;83;21141;-43
2021/08/15 07:54:34;;;;;;;1.70;1.60;;;;;;;30.48;34.05;99692.19;1718111;82;21233;-44
2021/08/15 07:57:00;;;;;;;2.15;2.00;;;;;;;30.48;34.05;99692.19;1750378;81;21020;-46
2021/08/15 07:59:29;;;;;;;1.98;1.62;;;;;;;30.48;34.06;99693.05;1750078;82;21515;-45
2021/08/15 08:01:56;;;;;;;1.60;1.50;;;;;;;30.49;34.04;99694.73;1750299;81;21043;-45
2021/08/15 08:04:28;;;;;;;2.12;1.92;;;;;;;30.51;34.05;99691.84;1721389;82;21082;-45
2021/08/15 08:06:57;;;;;;;1.77;1.67;;;;;;;30.51;34.03;99693.20;1750096;82;21546;-46
2021/08/15 08:09:24;;;;;;;2.37;2.17;;;;;;;30.50;34.04;99689.64;1747621;81;21525;-45
2021/08/15 08:11:53;;;;;;;1.80;1.70;;;;;;;30.52;34.06;99686.23;1745388;82;21027;-43
2021/08/15 08:14:19;;;;;;;1.95;1.85;;;;;;;30.52;34.06;99686.23;1745708;82;21529;-44
2021/08/15 08:16:46;;;;;;;2.17;1.85;;;;;;;30.54;34.02;99688.77;1749716;81;21524;-44
2021/08/15 08:19:13;;;;;;;2.98;1.70;;;;;;;30.55;34.02;99686.40;1750326;81;23044;-44
2021/08/15 08:21:39;;;;;;;1.95;1.85;;;;;;;30.55;34.01;99685.05;1720733;82;21011;-44
2021/08/15 08:24:07;;;;;;;1.80;1.70;;;;;;;30.56;34.01;99688.94;1721087;81;21075;-44
2021/08/15 08:26:34;;;;;;;1.70;1.60;;;;;;;30.56;34.02;99689.43;1749903;82;21035;-43
2021/08/15 08:29:02;;;;;;;2.10;1.92;;;;;;;30.57;34.02;99685.70;1750252;82;21008;-43
2021/08/15 08:31:30;;;;;;;2.00;1.90;;;;;;;30.57;34.02;99685.70;1750530;81;21174;-43
2021/08/15 08:33:56;;;;;;;2.22;2.00;;;;;;;30.58;34.00;99688.77;1750233;82;21023;-43
2021/08/15 08:36:23;;;;;;;2.10;1.98;;;;;;;30.59;34.01;99683.65;1719213;82;21008;-45
2021/08/15 08:38:50;;;;;;;2.20;1.80;;;;;;;30.59;34.00;99685.00;1750325;81;20972;-45
2021/08/15 08:41:17;;;;;;;2.12;1.75;;;;;;;30.59;34.00;99680.93;1751888;81;21021;-43
2021/08/15 08:43:45;;;;;;;2.02;1.92;;;;;;;30.60;34.00;99676.34;1716350;82;22052;-43
2021/08/15 08:46:12;;;;;;;2.45;1.80;;;;;;;30.60;34.01;99681.28;1750097;82;21094;-47
2021/08/15 08:48:40;;;;;;;1.75;1.65;;;;;;;30.61;34.01;99679.40;1750192;82;21057;-43
2021/08/15 08:51:08;;;;;;;1.80;1.70;;;;;;;30.60;34.03;99674.48;1720472;82;21038;-43
2021/08/15 08:53:35;;;;;;;2.00;1.90;;;;;;;30.60;34.04;99669.05;1750151;82;21516;-43
2021/08/15 08:56:02;;;;;;;1.95;1.77;;;;;;;30.61;34.03;99669.38;1750428;81;21139;-43
2021/08/15 08:58:29;;;;;;;1.85;1.52;;;;;;;30.63;34.02;99665.13;1749901;82;20950;-44
2021/08/15 09:00:57;;;;;;;1.80;1.70;;;;;;;30.63;34.02;99668.70;1750239;82;21114;-44
2021/08/15 09:03:23;;;;;;;1.70;1.60;;;;;;;30.62;34.03;99656.14;1750336;82;21035;-43
2021/08/15 09:05:52;;;;;;;1.92;1.82;;;;;;;30.65;34.00;99665.78;1750343;81;21482;-43
2021/08/15 09:08:28;;;;;;;1.82;1.72;;;;;;;30.65;33.99;99653.06;1748585;80;21042;-43
2021/08/15 09:11:20;;;;;;;1.92;1.82;;;;;;;30.66;34.01;99652.02;1719271;80;21088;-43
2021/08/15 09:14:08;;;;;;;1.75;1.65;;;;;;;30.66;33.98;99649.30;1700434;84;21539;-44
2021/08/15 09:17:05;;;;;;;1.77;1.67;;;;;;;30.66;33.97;99653.38;1732843;81;21072;-43
2021/08/15 09:19:53;;;;;;;1.92;1.82;;;;;;;30.67;33.97;99632.00;1751934;81;21567;-44
2021/08/15 09:22:23;;;;;;;2.10;2.00;;;;;;;30.68;33.96;99626.91;1722876;81;21136;-45
2021/08/15 09:25:00;;;;;;;1.77;1.67;;;;;;;30.68;34.00;99636.42;1751755;81;21038;-43
2021/08/15 09:27:37;;;;;;;1.77;1.67;;;;;;;30.67;33.98;99636.08;1751636;81;21522;-45
2021/08/15 09:30:16;;;;;;;1.75;1.65;;;;;;;30.67;34.01;99625.21;1751861;81;20977;-43
2021/08/15 09:32:57;;;;;;;1.77;1.67;;;;;;;30.69;34.01;99627.23;1721021;81;21563;-43
2021/08/15 09:35:38;;;;;;;2.00;1.90;;;;;;;30.68;34.01;99621.48;1720887;81;21016;-42
2021/08/15 09:38:13;;;;;;;2.08;1.87;;;;;;;30.68;34.02;99625.55;1707976;81;21329;-44
2021/08/15 09:40:53;;;;;;;1.70;1.60;;;;;;;30.70;34.01;99619.42;1717136;81;21045;-44
2021/08/15 09:43:27;;;;;;;2.67;1.77;;;;;;;30.70;34.02;99624.86;1762977;81;21070;-45
2021/08/15 09:45:58;;;;;;;2.12;1.92;;;;;;;30.70;34.01;99614.52;1749991;81;21026;-43
2021/08/15 09:48:37;;;;;;;1.90;1.80;;;;;;;30.71;33.99;99614.30;1750401;81;21153;-44
2021/08/15 09:51:22;;;;;;;2.30;2.10;;;;;;;30.73;33.99;99616.84;1750169;81;21614;-43
2021/08/15 09:53:59;;;;;;;1.92;1.82;;;;;;;30.74;33.96;99613.11;1708929;83;21074;-43
2021/08/15 09:56:40;;;;;;;1.90;1.80;;;;;;;30.73;33.99;99612.27;1671900;85;21174;-43
2021/08/15 09:59:22;;;;;;;1.90;1.70;;;;;;;30.74;33.98;99605.80;1709498;83;21006;-43
2021/08/15 10:01:52;;;;;;;2.27;2.08;;;;;;;30.75;33.96;99603.95;1709444;83;20964;-45
2021/08/15 10:04:19;;;;;;;1.90;1.80;;;;;;;30.76;33.98;99600.19;1709332;83;21086;-43
2021/08/15 10:06:51;;;;;;;2.02;1.92;;;;;;;30.75;34.00;99602.06;1709160;83;21085;-46
2021/08/15 10:09:20;;;;;;;1.70;1.60;;;;;;;30.77;33.97;99601.05;1709920;82;21177;-43
2021/08/15 10:11:47;;;;;;;1.75;1.65;;;;;;;30.77;33.97;99591.55;1689752;84;21535;-45
2021/08/15 10:14:14;;;;;;;1.77;1.67;;;;;;;30.79;33.98;99590.84;1710677;83;21194;-43
2021/08/15 10:17:02;;;;;;;1.82;1.72;;;;;;;30.80;33.96;99587.08;1710491;83;21105;-43
2021/08/15 10:19:44;;;;;;;1.87;1.77;;;;;;;30.81;33.95;99579.27;1709326;83;21022;-43
2021/08/15 10:22:10;;;;;;;1.90;1.80;;;;;;;30.81;33.93;99573.31;1709284;83;21003;-46
2021/08/15 10:24:42;;;;;;;1.85;1.75;;;;;;;30.82;33.93;99570.11;1709330;83;21105;-44
2021/08/15 10:27:09;;;;;;;2.25;2.08;;;;;;;30.84;33.92;99572.13;1685408;83;21222;-44
2021/08/15 10:29:44;;;;;;;1.85;1.60;;;;;;;30.84;33.91;99564.81;1685329;83;21062;-48
2021/08/15 10:32:20;;;;;;;2.27;1.70;;;;;;;30.84;33.94;99566.69;1709214;83;21051;-44
2021/08/15 10:34:57;;;;;;;1.50;1.40;;;;;;;30.84;33.91;99562.09;1709539;83;21105;-46
2021/08/15 10:37:29;;;;;;;1.80;1.70;;;;;;;30.85;33.91;99554.77;1687694;83;21007;-43
2021/08/15 10:40:05;;;;;;;1.62;1.52;;;;;;;30.86;33.91;99562.75;1710937;83;21228;-47
2021/08/15 10:42:45;;;;;;;1.98;1.82;;;;;;;30.88;33.89;99554.41;1710548;83;21033;-44
2021/08/15 10:45:24;;;;;;;1.92;1.82;;;;;;;30.88;33.88;99554.41;1709409;83;21630;-45
2021/08/15 10:48:14;;;;;;;1.75;1.65;;;;;;;30.89;33.88;99560.19;1708964;83;21109;-48
2021/08/15 10:50:56;;;;;;;1.72;1.62;;;;;;;30.90;33.89;99552.35;1685940;83;21022;-45
2021/08/15 10:53:32;;;;;;;1.90;1.80;;;;;;;30.90;33.88;99547.78;1709531;82;21799;-45
2021/08/15 10:56:08;;;;;;;1.70;1.60;;;;;;;30.91;33.88;99554.05;1720647;82;21082;-46
2021/08/15 10:58:41;;;;;;;2.10;1.90;;;;;;;30.91;33.88;99544.55;1720845;81;21680;-44
2021/08/15 11:01:13;;;;;;;1.90;1.80;;;;;;;30.92;33.86;99540.81;1750042;82;21449;-45
2021/08/15 11:03:52;;;;;;;1.87;1.77;;;;;;;30.92;33.88;99536.73;1720697;82;21540;-44
2021/08/15 11:06:38;;;;;;;1.85;1.75;;;;;;;30.93;33.87;99532.48;1750378;81;21860;-44
2021/08/15 11:09:08;;;;;;;1.75;1.65;;;;;;;30.93;33.88;99533.83;1748379;81;21535;-45
2021/08/15 11:11:41;;;;;;;1.40;1.30;;;;;;;30.95;33.86;99530.97;1745337;82;21117;-44
2021/08/15 11:14:25;;;;;;;1.70;1.60;;;;;;;30.96;33.84;99529.92;1721291;81;21154;-47
2021/08/15 11:16:59;;;;;;;1.90;1.80;;;;;;;30.98;33.84;99535.17;1709379;82;20978;-45
2021/08/15 11:19:27;;;;;;;2.65;1.85;;;;;;;30.98;33.83;99529.22;1750074;82;21147;-44
2021/08/15 11:22:13;;;;;;;1.80;1.70;;;;;;;31.00;33.82;99532.61;1749941;81;21624;-45
2021/08/15 11:24:49;;;;;;;1.70;1.60;;;;;;;31.01;33.84;99537.00;1750312;81;21027;-44
2021/08/15 11:27:31;;;;;;;1.77;1.67;;;;;;;31.02;33.81;99528.33;1750255;81;21102;-44
2021/08/15 11:30:02;;;;;;;1.80;1.70;;;;;;;31.03;33.81;99528.14;1749189;82;21451;-45
2021/08/15 11:32:30;;;;;;;2.02;1.92;;;;;;;31.04;33.81;99522.21;1750189;81;21132;-44
2021/08/15 11:35:09;;;;;;;1.60;1.50;;;;;;;31.04;33.81;99520.85;1750008;82;21687;-45
2021/08/15 11:37:40;;;;;;;3.80;1.87;;;;;;;31.04;33.81;99514.89;1716817;82;21550;-45
2021/08/15 11:40:32;;;;;;;1.65;1.55;;;;;;;31.03;33.79;99509.12;1743571;81;21065;-44
2021/08/15 11:43:06;;;;;;;2.20;2.00;;;;;;;31.05;33.81;99510.30;1757492;80;21108;-45